• Join FlightAware (Why Join?)
  • Login
  • US Flag 
06:45AM EDT


 

Airport Tracker/Info


-or-


 

Live Flight TrackerFlight Track Log ✈ IBE488 ✈ 05-May-2013 ✈ LEMD / MAD - LEAS / OVD

Flight Track Log - Related Links

Times and Time Zones

All times are in EDT time to prevent confusion due to time zone crossing. See the IBE488 flight status page for this flight to view local times or setup timezone preferences in your user account.

Time Position Orientation Groundspeed Altitude Reporting Facility
EDT Latitude Longitude Course Direction KTS MPH feet Rate Location/Type
06:26AM 42.1141 -4.8343 330° Northwest  Level Estimated
06:27AM 42.1947 -4.8994 329° Northwest  Level Estimated
06:28AM 42.2753 -4.9646 329° Northwest  Level Estimated
06:29AM 42.3559 -5.0300 329° Northwest  Level Estimated
06:30AM 42.4364 -5.0956 329° Northwest  Level Estimated
06:31AM 42.5169 -5.1613 329° Northwest  Level Estimated
06:32AM 42.5974 -5.2272 329° Northwest  Level Estimated
06:33AM 42.6778 -5.2933 329° Northwest  Level Estimated
06:34AM 42.7582 -5.3595 329° Northwest  Level Estimated
06:35AM 42.8386 -5.4259 329° Northwest  Level Estimated
06:36AM 42.9189 -5.4925 329° Northwest  Level Estimated
06:37AM 42.9992 -5.5593 329° Northwest  Level Estimated
06:38AM 43.0794 -5.6262 329° Northwest  Level Estimated
06:39AM 43.1596 -5.6933 329° Northwest  Level Estimated
06:40AM 43.2398 -5.7606 329° Northwest  Level Estimated
06:41AM 43.3199 -5.8281 329° Northwest  Level Estimated
06:42AM 43.4000 -5.8958 328° Northwest  Level Estimated
06:43AM 43.4800 -5.9636 328° Northwest  Level Estimated
06:44AM 43.5600 -6.0316 328° Northwest  Level Estimated
06:45AM 43.5636 -6.0346 328° Northwest  Level Estimated
06:46AM 43.5636 -6.0346 206° Southwest  Level Estimated
06:47AM 43.5636 -6.0346 206° Southwest  Level Estimated
06:48AM 43.5636 -6.0346 206° Southwest  Level Estimated
06:49AM 43.5636 -6.0346 206° Southwest  Level Estimated
06:50AM 43.5636 -6.0346 206° Southwest  Level Estimated
06:51AM 43.5636 -6.0346 206° Southwest  Level Estimated
06:52AM 43.5636 -6.0346 206° Southwest  Level Estimated
06:53AM 43.5636 -6.0346 206° Southwest  Level Estimated
06:54AM 43.5636 -6.0346 206° Southwest  Level Estimated
06:55AM 43.5636 -6.0346 206° Southwest  Level Estimated
06:56AM 43.5636 -6.0346 206° Southwest  Level Estimated
06:57AM 43.5636 -6.0346 206° Southwest  Level Estimated
06:58AM 43.5636 -6.0346 206° Southwest  Level Estimated
06:59AM 43.5636 -6.0346 206° Southwest  Level Estimated
07:00AM 43.5636 -6.0346 206° Southwest  Level Estimated